KPIE

St Pete-Clearwater International Airport

St Petersburg-Clearwater, Florida, USA
METAR KPIE 190853Z AUTO 00000KT 10SM CLR 26/24 A2992 RMK AO2 SLP132 60000 T02560244 56008 $
Observed Flight Rules
Sep-19 @ 08:53 UTC (52 minutes ago) Visual Flight Rules
Visibility Clouds
10 miles
  • Clear skies
Temperatures Readings
Current 26°C / 79°F
Dewpoint 24°C / 75°F
Humidity 89%
Altimeter 29.92" Hg
Pressure 1013.2 hPa
Elevation 4
METAR KPIE 190853Z AUTO 00000KT 10SM CLR 26/24 A2992 RMK AO2 SLP132 60000 T02560244 56008 $
Observed Flight Rules
Sep-19 @ 08:53 UTC
(52 minutes ago)
VFR
Clouds
  • Clear skies
Temperature Dewpoint
26°C / 79°F 24°C / 75°F
Humidity Altimeter Pressure
89% 29.92" Hg 1013.2 hPa